Time;durP1;ratioP1;P1;durP2;ratioP2;P2;SDS_P1;SDS_P2;PMS_P1;PMS_P2;Temp;Humidity;BMP_temperature;BMP_pressure;BME280_temperature;BME280_humidity;BME280_pressure;Samples;Min_cycle;Max_cycle;Signal;HPM_P1;HPM_P2
2022/09/23 00:01:17;;;;;;;5.00;4.33;;;16.20;50.60;;;;;;5004904;28;20432;-47
2022/09/23 00:03:45;;;;;;;5.70;4.40;;;16.20;50.90;;;;;;5002211;28;20444;-47
2022/09/23 00:06:13;;;;;;;7.23;4.40;;;16.30;50.70;;;;;;5002189;28;20198;-47
2022/09/23 00:08:39;;;;;;;4.60;4.20;;;16.40;50.40;;;;;;5006370;28;20444;-46
2022/09/23 00:11:14;;;;;;;5.07;4.57;;;16.50;50.20;;;;;;5008722;28;20451;-48
2022/09/23 00:13:41;;;;;;;4.57;4.17;;;16.60;49.90;;;;;;5005473;28;20444;-52
2022/09/23 00:16:10;;;;;;;6.90;5.40;;;16.50;49.70;;;;;;5000827;28;20492;-47
2022/09/23 00:18:36;;;;;;;5.03;4.20;;;16.50;50.00;;;;;;5007464;28;21166;-49
2022/09/23 00:21:07;;;;;;;6.87;4.53;;;16.50;49.90;;;;;;5003990;28;20433;-50
2022/09/23 00:23:32;;;;;;;4.37;3.97;;;16.50;50.00;;;;;;5006764;28;20303;-49
2022/09/23 00:26:01;;;;;;;4.60;3.67;;;16.50;50.10;;;;;;5007583;28;20516;-48
2022/09/23 00:28:27;;;;;;;4.20;3.83;;;16.50;49.90;;;;;;5009445;28;20336;-51
2022/09/23 00:30:52;;;;;;;5.13;4.63;;;16.30;49.80;;;;;;5005014;28;20447;-49
2022/09/23 00:33:18;;;;;;;4.20;3.80;;;16.10;50.30;;;;;;5002563;28;20813;-48
2022/09/23 00:35:44;;;;;;;4.77;3.83;;;15.90;50.50;;;;;;5007928;28;20221;-50
2022/09/23 00:38:10;;;;;;;4.30;3.80;;;15.80;50.80;;;;;;5007784;28;20281;-47
2022/09/23 00:40:47;;;;;;;4.40;4.10;;;15.60;51.30;;;;;;5005019;28;20194;-48
2022/09/23 00:43:13;;;;;;;4.80;4.40;;;15.30;51.90;;;;;;5004936;28;20193;-48
2022/09/23 00:45:42;;;;;;;4.47;4.07;;;15.20;52.20;;;;;;5006928;28;20537;-48
2022/09/23 00:48:16;;;;;;;8.00;4.10;;;15.00;52.70;;;;;;5009898;28;20447;-49
2022/09/23 00:50:47;;;;;;;5.87;4.83;;;15.00;52.90;;;;;;5006436;28;20810;-49
2022/09/23 00:53:18;;;;;;;6.40;5.20;;;15.00;53.00;;;;;;5010819;28;20440;-47
2022/09/23 00:55:51;;;;;;;6.70;4.63;;;14.90;53.20;;;;;;5011852;28;20503;-48
2022/09/23 00:58:22;;;;;;;8.90;5.17;;;14.90;53.30;;;;;;5008181;28;20458;-50
2022/09/23 01:00:48;;;;;;;9.90;5.50;;;14.90;53.40;;;;;;5006862;28;20444;-51
2022/09/23 01:03:14;;;;;;;5.90;4.50;;;14.80;53.50;;;;;;5003254;28;20452;-47
2022/09/23 01:05:41;;;;;;;7.30;5.20;;;14.70;53.40;;;;;;5010013;28;20980;-48
2022/09/23 01:08:09;;;;;;;4.73;4.03;;;14.80;53.40;;;;;;5000630;28;20186;-47
2022/09/23 01:10:59;;;;;;;5.97;4.70;;;14.80;53.30;;;;;;5005402;28;20949;-48
2022/09/23 01:13:41;;;;;;;5.27;4.77;;;14.70;53.50;;;;;;5008474;28;21986;-49
2022/09/23 01:16:30;;;;;;;5.23;4.37;;;14.60;53.60;;;;;;5009286;28;20476;-48
2022/09/23 01:18:57;;;;;;;4.80;4.13;;;14.50;53.70;;;;;;5008719;28;20461;-47
2022/09/23 01:21:34;;;;;;;4.50;4.10;;;14.50;53.80;;;;;;5006809;28;20952;-47
2022/09/23 01:24:01;;;;;;;4.47;4.07;;;14.50;53.90;;;;;;5009063;28;20456;-48
2022/09/23 01:27:10;;;;;;;4.27;3.77;;;14.10;54.30;;;;;;5006364;28;20441;-48
2022/09/23 01:29:54;;;;;;;4.10;3.80;;;14.10;54.80;;;;;;4996026;28;20810;-47
2022/09/23 01:32:30;;;;;;;4.03;3.73;;;13.80;55.40;;;;;;5001582;28;20922;-47
2022/09/23 01:35:13;;;;;;;4.50;4.10;;;13.70;55.90;;;;;;5006826;28;20531;-48
2022/09/23 01:38:02;;;;;;;4.90;3.67;;;13.80;55.70;;;;;;5008999;28;20523;-47
2022/09/23 01:40:47;;;;;;;5.93;5.00;;;13.80;55.70;;;;;;5009661;28;20464;-46
2022/09/23 01:43:24;;;;;;;4.43;4.03;;;13.70;55.70;;;;;;5007545;28;20480;-46
2022/09/23 01:45:55;;;;;;;5.47;3.87;;;13.70;55.70;;;;;;5006844;28;20440;-47
2022/09/23 01:48:27;;;;;;;4.63;3.70;;;13.50;56.00;;;;;;5005205;28;20448;-48
2022/09/23 01:51:15;;;;;;;4.30;3.90;;;13.40;56.30;;;;;;5004923;28;20447;-47
2022/09/23 01:53:53;;;;;;;6.13;4.13;;;13.50;56.30;;;;;;5001122;28;20448;-47
2022/09/23 01:56:26;;;;;;;5.77;4.30;;;13.60;56.00;;;;;;5003697;28;20862;-47
2022/09/23 01:59:08;;;;;;;5.00;4.20;;;13.30;56.10;;;;;;5008453;28;20436;-47
2022/09/23 02:01:40;;;;;;;4.57;4.17;;;13.20;56.60;;;;;;5001353;28;20457;-47
2022/09/23 02:04:11;;;;;;;5.07;4.60;;;13.20;56.60;;;;;;5003796;28;20677;-48
2022/09/23 02:06:45;;;;;;;4.77;4.37;;;13.10;56.90;;;;;;4999839;28;20502;-47
2022/09/23 02:09:15;;;;;;;4.87;3.80;;;13.00;57.00;;;;;;5006047;28;20452;-51
2022/09/23 02:11:45;;;;;;;3.93;3.60;;;13.00;57.30;;;;;;5007870;28;21274;-46
2022/09/23 02:14:14;;;;;;;4.10;3.70;;;12.80;57.50;;;;;;5007390;28;20444;-46
2022/09/23 02:16:50;;;;;;;4.50;4.00;;;13.00;57.40;;;;;;5007085;28;20975;-47
2022/09/23 02:19:38;;;;;;;4.50;4.10;;;13.00;57.20;;;;;;5004206;28;20538;-47
2022/09/23 02:22:12;;;;;;;7.17;4.03;;;12.90;57.10;;;;;;5007983;28;20481;-47
2022/09/23 02:24:38;;;;;;;4.00;3.70;;;12.80;57.50;;;;;;5007936;28;20453;-47
2022/09/23 02:27:25;;;;;;;4.00;3.60;;;12.70;57.60;;;;;;5005822;28;20932;-46
2022/09/23 02:29:57;;;;;;;4.47;4.07;;;12.80;57.80;;;;;;5004102;28;20951;-51
2022/09/23 02:32:49;;;;;;;4.50;4.10;;;12.80;57.60;;;;;;5002792;28;21002;-47
2022/09/23 02:35:18;;;;;;;4.30;3.90;;;12.80;57.30;;;;;;5000104;28;20879;-47
2022/09/23 02:37:51;;;;;;;5.80;4.50;;;12.70;57.70;;;;;;5005885;28;21006;-47
2022/09/23 02:40:39;;;;;;;4.47;4.07;;;12.70;57.80;;;;;;5006866;28;20452;-47
2022/09/23 02:43:26;;;;;;;4.37;3.97;;;12.80;57.50;;;;;;4998127;28;20449;-47
2022/09/23 02:45:52;;;;;;;4.17;3.77;;;12.90;57.10;;;;;;5004607;28;20457;-46
2022/09/23 02:48:23;;;;;;;4.83;4.23;;;13.00;56.90;;;;;;5001806;28;20780;-48
2022/09/23 02:50:49;;;;;;;4.30;3.90;;;12.90;56.60;;;;;;4998560;28;20202;-47
2022/09/23 02:53:15;;;;;;;4.63;4.13;;;12.80;57.00;;;;;;5006849;28;20507;-46
2022/09/23 02:55:41;;;;;;;4.40;4.00;;;12.70;57.50;;;;;;5001451;28;20969;-51
2022/09/23 02:58:08;;;;;;;5.10;4.40;;;12.70;57.50;;;;;;5001922;28;20440;-48
2022/09/23 03:00:41;;;;;;;3.90;3.50;;;12.70;57.20;;;;;;5003262;28;21108;-51
2022/09/23 03:03:31;;;;;;;11.03;5.17;;;12.70;57.20;;;;;;5005829;28;20449;-51
2022/09/23 03:05:59;;;;;;;4.67;4.20;;;12.70;57.20;;;;;;5000465;28;20464;-50
2022/09/23 03:08:54;;;;;;;5.27;4.27;;;12.70;57.10;;;;;;5005440;28;20473;-51
2022/09/23 03:11:20;;;;;;;4.43;4.00;;;12.80;56.90;;;;;;4998453;28;20464;-49
2022/09/23 03:14:06;;;;;;;6.20;4.50;;;12.80;56.70;;;;;;5000839;28;20481;-48
2022/09/23 03:16:52;;;;;;;5.57;3.60;;;12.80;56.70;;;;;;5008609;28;20991;-48
2022/09/23 03:19:21;;;;;;;4.27;3.97;;;12.80;56.60;;;;;;4999028;28;20805;-50
2022/09/23 03:21:50;;;;;;;4.60;3.87;;;12.70;56.50;;;;;;5004357;28;20487;-49
2022/09/23 03:24:19;;;;;;;4.37;3.60;;;12.70;56.80;;;;;;5006367;28;20453;-49
2022/09/23 03:26:46;;;;;;;4.70;4.30;;;12.80;56.70;;;;;;5003108;28;20449;-50
2022/09/23 03:29:14;;;;;;;4.00;3.70;;;12.80;56.50;;;;;;5001965;28;21779;-50
2022/09/23 03:31:41;;;;;;;3.97;3.67;;;12.80;56.30;;;;;;5001727;28;20468;-49
2022/09/23 03:34:15;;;;;;;4.47;4.00;;;12.80;56.40;;;;;;5005933;28;20567;-51
2022/09/23 03:37:00;;;;;;;4.17;3.77;;;12.70;56.60;;;;;;5004820;28;20488;-47
2022/09/23 03:39:28;;;;;;;4.67;4.10;;;12.70;56.50;;;;;;5001507;28;20448;-48
2022/09/23 03:41:58;;;;;;;5.10;4.33;;;12.60;56.10;;;;;;5001673;28;20453;-47
2022/09/23 03:44:27;;;;;;;4.50;3.83;;;12.50;56.50;;;;;;5006520;28;20502;-48
2022/09/23 03:46:57;;;;;;;3.63;3.33;;;12.40;56.80;;;;;;5002460;28;20948;-47
2022/09/23 03:49:28;;;;;;;3.93;3.63;;;12.40;57.00;;;;;;5004444;28;20551;-47
2022/09/23 03:51:54;;;;;;;4.23;3.87;;;12.40;56.60;;;;;;5009121;28;20522;-47
2022/09/23 03:54:20;;;;;;;3.77;3.47;;;12.40;56.80;;;;;;5009211;28;20437;-47
2022/09/23 03:56:46;;;;;;;3.90;3.60;;;12.20;56.90;;;;;;5004653;28;20918;-47
2022/09/23 03:59:16;;;;;;;3.40;3.17;;;12.10;57.40;;;;;;5008005;28;20495;-47
2022/09/23 04:01:42;;;;;;;3.60;3.30;;;12.00;57.60;;;;;;5006536;28;22342;-47
2022/09/23 04:04:08;;;;;;;4.37;3.93;;;12.10;57.60;;;;;;5003988;28;20503;-46
2022/09/23 04:06:34;;;;;;;4.53;4.10;;;12.00;57.40;;;;;;5005745;28;20449;-48
2022/09/23 04:09:00;;;;;;;3.80;3.50;;;12.00;57.50;;;;;;5005780;28;20515;-46
2022/09/23 04:11:27;;;;;;;4.10;3.70;;;11.90;58.20;;;;;;5008218;28;20851;-47
2022/09/23 04:13:54;;;;;;;4.07;3.77;;;12.00;58.20;;;;;;5006258;28;20190;-47
2022/09/23 04:16:20;;;;;;;3.93;3.53;;;12.00;57.70;;;;;;5013552;28;20897;-47
2022/09/23 04:18:45;;;;;;;4.27;3.87;;;12.10;57.40;;;;;;5004237;28;20449;-48
2022/09/23 04:21:11;;;;;;;5.10;4.20;;;12.00;57.40;;;;;;5006692;28;20190;-47
2022/09/23 04:23:36;;;;;;;4.30;3.47;;;12.00;57.70;;;;;;5011215;28;20240;-47
2022/09/23 04:26:04;;;;;;;4.10;3.80;;;12.00;57.70;;;;;;5009813;28;20839;-50
2022/09/23 04:28:30;;;;;;;4.70;4.23;;;11.90;57.50;;;;;;5009123;28;20559;-48
2022/09/23 04:30:56;;;;;;;4.73;4.23;;;12.00;57.90;;;;;;5006426;28;20531;-49
2022/09/23 04:33:23;;;;;;;4.60;3.73;;;11.90;57.50;;;;;;5008772;28;20510;-47
2022/09/23 04:35:51;;;;;;;5.20;3.60;;;11.80;57.80;;;;;;5006505;28;20510;-47
2022/09/23 04:38:18;;;;;;;4.20;3.80;;;11.90;57.90;;;;;;5008913;28;20896;-50
2022/09/23 04:40:44;;;;;;;4.23;3.83;;;11.50;58.40;;;;;;5012262;28;20437;-51
2022/09/23 04:43:09;;;;;;;4.97;4.57;;;11.50;58.80;;;;;;5007166;28;20963;-50
2022/09/23 04:45:35;;;;;;;4.77;4.37;;;11.50;58.80;;;;;;5011531;28;20202;-51
2022/09/23 04:48:02;;;;;;;12.03;4.70;;;11.50;58.70;;;;;;5009291;28;20437;-51
2022/09/23 04:50:27;;;;;;;4.43;4.03;;;11.50;58.80;;;;;;5005109;28;20268;-50
2022/09/23 04:52:54;;;;;;;7.77;4.53;;;11.50;58.60;;;;;;5010267;28;20452;-52
2022/09/23 04:55:20;;;;;;;4.73;4.33;;;11.60;58.60;;;;;;5009023;28;20902;-51
2022/09/23 04:57:46;;;;;;;9.33;4.80;;;11.70;58.40;;;;;;5005334;28;20485;-52
2022/09/23 05:00:12;;;;;;;4.10;3.70;;;11.70;58.10;;;;;;5008061;28;20819;-47
2022/09/23 05:02:45;;;;;;;4.40;3.93;;;11.70;58.20;;;;;;5001279;28;20194;-50
2022/09/23 05:05:12;;;;;;;4.17;3.83;;;11.70;58.30;;;;;;5009094;28;20814;-51
2022/09/23 05:07:38;;;;;;;4.80;4.30;;;11.60;58.20;;;;;;5008563;28;20437;-50
2022/09/23 05:10:05;;;;;;;6.53;4.33;;;11.60;58.40;;;;;;5005738;28;20449;-49
2022/09/23 05:12:30;;;;;;;3.80;3.50;;;11.40;59.00;;;;;;5008271;28;20443;-51
2022/09/23 05:14:56;;;;;;;4.90;4.30;;;11.50;58.80;;;;;;5007931;28;20540;-51
2022/09/23 05:17:21;;;;;;;5.30;3.13;;;11.60;58.50;;;;;;5003469;28;20241;-51
2022/09/23 05:19:47;;;;;;;4.80;4.30;;;11.70;59.10;;;;;;5009306;28;20201;-51
2022/09/23 05:22:13;;;;;;;4.20;3.83;;;12.00;60.20;;;;;;5006675;28;20229;-48
2022/09/23 05:24:38;;;;;;;8.33;4.00;;;12.30;60.60;;;;;;5003635;28;20190;-51
2022/09/23 05:27:06;;;;;;;4.17;3.43;;;12.50;59.10;;;;;;5006989;28;20194;-51
2022/09/23 05:29:32;;;;;;;3.30;3.10;;;12.70;58.90;;;;;;5004936;28;20202;-50
2022/09/23 05:31:57;;;;;;;3.93;3.63;;;12.90;58.20;;;;;;5007701;28;20441;-49
2022/09/23 05:34:23;;;;;;;6.30;3.77;;;13.10;57.60;;;;;;5005006;28;20217;-51
2022/09/23 05:36:49;;;;;;;4.27;3.87;;;13.20;56.80;;;;;;5001931;28;20693;-50
2022/09/23 05:39:14;;;;;;;5.20;4.00;;;13.30;56.10;;;;;;5009651;28;20443;-48
2022/09/23 05:41:42;;;;;;;4.27;3.97;;;13.40;55.70;;;;;;5012073;28;20197;-48
2022/09/23 05:44:08;;;;;;;5.53;4.03;;;13.40;56.20;;;;;;5009350;28;20188;-48
2022/09/23 05:46:34;;;;;;;4.07;3.70;;;13.60;55.30;;;;;;5010851;28;20874;-50
2022/09/23 05:49:01;;;;;;;4.30;3.90;;;13.70;54.80;;;;;;5011394;28;20445;-51
2022/09/23 05:51:27;;;;;;;4.40;4.00;;;13.80;54.80;;;;;;5008098;28;20491;-51
2022/09/23 05:53:54;;;;;;;3.97;3.57;;;13.80;53.50;;;;;;5009988;28;20445;-49
2022/09/23 05:56:23;;;;;;;4.70;4.30;;;13.80;54.00;;;;;;5009492;28;20479;-48
2022/09/23 05:58:52;;;;;;;7.27;3.83;;;13.80;54.20;;;;;;5011996;28;20480;-48
2022/09/23 06:01:20;;;;;;;4.20;3.90;;;13.70;54.00;;;;;;5009141;28;20565;-48
2022/09/23 06:03:50;;;;;;;4.90;4.10;;;13.50;54.60;;;;;;5012827;28;20835;-52
2022/09/23 06:06:19;;;;;;;4.30;3.43;;;13.30;55.10;;;;;;5007611;28;20445;-50
2022/09/23 06:08:45;;;;;;;6.27;4.03;;;13.40;55.40;;;;;;5011531;28;20932;-50
2022/09/23 06:11:12;;;;;;;4.40;4.00;;;13.60;55.20;;;;;;5008233;28;21019;-48
2022/09/23 06:13:39;;;;;;;4.47;3.70;;;13.80;55.00;;;;;;5011620;28;20453;-52
2022/09/23 06:16:07;;;;;;;4.57;4.00;;;14.00;54.40;;;;;;5008334;28;20595;-48
2022/09/23 06:18:33;;;;;;;3.97;3.63;;;14.20;54.10;;;;;;5010126;28;20457;-49
2022/09/23 06:21:01;;;;;;;4.30;3.90;;;14.30;53.90;;;;;;5011013;28;20445;-49
2022/09/23 06:23:26;;;;;;;5.67;4.20;;;14.40;53.50;;;;;;5016089;28;20467;-48
2022/09/23 06:25:53;;;;;;;5.47;5.03;;;14.10;53.50;;;;;;5009751;28;20491;-48
2022/09/23 06:28:18;;;;;;;4.67;3.73;;;14.10;54.00;;;;;;5007111;28;20185;-48
2022/09/23 06:30:44;;;;;;;5.50;3.83;;;14.00;54.30;;;;;;5009127;28;20448;-50
2022/09/23 06:33:10;;;;;;;4.87;4.33;;;14.10;54.30;;;;;;5009741;28;21305;-51
2022/09/23 06:35:35;;;;;;;4.73;4.23;;;14.30;54.30;;;;;;5007137;28;20230;-48
2022/09/23 06:38:04;;;;;;;6.77;4.40;;;14.20;54.20;;;;;;5009717;28;20284;-48
2022/09/23 06:40:30;;;;;;;6.33;4.13;;;13.70;55.40;;;;;;5009130;28;20193;-51
2022/09/23 06:43:00;;;;;;;13.00;5.63;;;13.60;56.20;;;;;;5000156;28;20531;-50
2022/09/23 06:45:26;;;;;;;7.53;4.40;;;13.40;57.10;;;;;;5009827;28;20202;-47
2022/09/23 06:47:56;;;;;;;7.50;4.17;;;13.90;60.10;;;;;;5003675;28;21200;-50
2022/09/23 06:50:26;;;;;;;5.60;4.07;;;14.40;57.50;;;;;;5004434;28;20459;-47
2022/09/23 06:52:54;;;;;;;7.70;4.10;;;14.50;57.00;;;;;;5007341;28;20952;-50
2022/09/23 06:55:22;;;;;;;12.20;4.00;;;15.00;56.30;;;;;;5008787;28;20803;-47
2022/09/23 06:57:47;;;;;;;6.17;4.10;;;15.40;55.00;;;;;;5007585;28;20994;-50
2022/09/23 07:00:13;;;;;;;4.73;4.30;;;15.80;54.20;;;;;;5008340;28;20437;-48
2022/09/23 07:02:41;;;;;;;5.40;3.47;;;16.30;53.40;;;;;;5005486;28;20256;-47
2022/09/23 07:05:08;;;;;;;4.43;4.03;;;16.60;52.10;;;;;;5008699;28;20620;-50
2022/09/23 07:07:36;;;;;;;5.80;4.40;;;16.70;51.20;;;;;;5008578;28;20447;-48
2022/09/23 07:10:04;;;;;;;5.47;4.47;;;16.90;51.20;;;;;;5008038;28;20448;-47
2022/09/23 07:12:30;;;;;;;5.00;4.30;;;17.00;50.90;;;;;;5008548;28;21022;-47
2022/09/23 07:14:56;;;;;;;6.90;3.87;;;17.00;50.30;;;;;;5008795;28;20574;-46
2022/09/23 07:17:23;;;;;;;4.40;4.00;;;17.00;50.80;;;;;;5009204;28;20520;-51
2022/09/23 07:19:49;;;;;;;4.93;4.43;;;16.60;50.60;;;;;;4997990;28;20197;-50
2022/09/23 07:22:15;;;;;;;4.97;4.53;;;16.70;51.20;;;;;;5003079;28;20830;-46
2022/09/23 07:24:40;;;;;;;3.73;3.30;;;16.70;51.10;;;;;;5002722;28;20491;-47
2022/09/23 07:27:06;;;;;;;5.70;4.47;;;16.90;50.90;;;;;;5003567;28;20293;-48
2022/09/23 07:29:32;;;;;;;4.93;4.03;;;16.50;51.10;;;;;;5006320;28;20225;-47
2022/09/23 07:31:57;;;;;;;5.73;4.13;;;16.60;51.90;;;;;;5005124;28;20200;-47
2022/09/23 07:34:23;;;;;;;5.53;4.30;;;16.60;51.20;;;;;;5007763;28;20940;-47
2022/09/23 07:36:49;;;;;;;5.20;4.20;;;16.40;51.60;;;;;;5001499;28;20612;-49
2022/09/23 07:39:15;;;;;;;3.90;3.60;;;16.70;51.80;;;;;;5010345;28;20197;-46
2022/09/23 07:41:43;;;;;;;6.10;4.40;;;16.50;51.60;;;;;;5004999;28;20618;-46
2022/09/23 07:44:09;;;;;;;5.83;5.23;;;16.20;52.30;;;;;;5005584;28;20196;-46
2022/09/23 07:46:35;;;;;;;7.37;5.03;;;16.50;52.00;;;;;;5010177;28;20464;-47
2022/09/23 07:49:03;;;;;;;5.23;4.27;;;16.50;51.50;;;;;;5017984;28;20487;-48
2022/09/23 07:51:34;;;;;;;4.83;4.00;;;16.40;51.40;;;;;;5004248;28;20449;-47
2022/09/23 07:54:00;;;;;;;3.90;3.50;;;16.60;51.50;;;;;;5009137;28;20479;-48
2022/09/23 07:56:28;;;;;;;5.17;3.67;;;16.90;51.20;;;;;;5002372;28;20524;-48
2022/09/23 07:59:00;;;;;;;4.70;3.80;;;17.20;51.10;;;;;;5004698;28;20608;-50
2022/09/23 08:01:38;;;;;;;7.20;3.50;;;17.60;50.30;;;;;;5012592;28;20853;-48
2022/09/23 08:04:16;;;;;;;3.67;3.47;;;17.90;49.30;;;;;;5008126;28;20455;-48
2022/09/23 08:06:44;;;;;;;4.27;3.87;;;18.10;49.00;;;;;;5006739;28;20548;-48
2022/09/23 08:09:11;;;;;;;3.87;3.57;;;18.10;48.10;;;;;;5008080;28;20441;-48
2022/09/23 08:11:40;;;;;;;3.67;3.37;;;18.20;48.30;;;;;;5006714;28;20445;-47
2022/09/23 08:14:11;;;;;;;4.30;3.47;;;18.00;47.80;;;;;;5012622;28;20456;-47
2022/09/23 08:16:38;;;;;;;4.93;3.50;;;18.20;48.10;;;;;;5006895;28;20492;-47
2022/09/23 08:19:04;;;;;;;4.27;3.43;;;18.50;47.80;;;;;;5006966;28;20459;-48
2022/09/23 08:21:30;;;;;;;3.50;3.20;;;18.70;47.40;;;;;;5010435;28;20453;-46
2022/09/23 08:23:56;;;;;;;5.43;3.57;;;18.70;46.90;;;;;;5013845;28;20534;-48
2022/09/23 08:26:22;;;;;;;3.80;3.50;;;18.80;46.70;;;;;;5009851;28;20276;-48
2022/09/23 08:28:48;;;;;;;3.40;3.20;;;18.80;46.80;;;;;;5016462;28;20684;-48
2022/09/23 08:31:13;;;;;;;3.83;3.53;;;19.00;47.10;;;;;;5007501;28;22053;-47
2022/09/23 08:33:40;;;;;;;4.60;3.20;;;18.60;46.90;;;;;;5008825;28;20442;-47
2022/09/23 08:36:06;;;;;;;3.83;3.40;;;18.60;47.60;;;;;;5013419;28;20202;-47
2022/09/23 08:38:32;;;;;;;3.00;2.80;;;18.00;48.40;;;;;;5013735;28;20527;-47
2022/09/23 08:41:21;;;;;;;3.80;3.50;;;18.00;49.70;;;;;;5014270;28;20915;-47
2022/09/23 08:43:51;;;;;;;4.00;3.60;;;18.30;48.30;;;;;;5012384;28;20204;-49
2022/09/23 08:46:24;;;;;;;4.60;4.00;;;18.60;47.80;;;;;;5007868;28;20476;-47
2022/09/23 08:48:50;;;;;;;3.67;3.37;;;19.00;47.30;;;;;;5012644;28;20441;-47
2022/09/23 08:51:28;;;;;;;3.67;3.37;;;19.20;46.90;;;;;;5012835;28;20455;-47
2022/09/23 08:53:53;;;;;;;4.87;4.47;;;19.50;47.10;;;;;;5003070;28;20452;-48
2022/09/23 08:56:22;;;;;;;8.63;4.07;;;19.60;46.20;;;;;;5009438;28;20523;-48
2022/09/23 08:59:06;;;;;;;3.40;3.20;;;19.80;46.20;;;;;;5014081;28;20252;-47
2022/09/23 09:01:47;;;;;;;2.67;2.47;;;19.80;45.80;;;;;;5011802;28;20472;-47
2022/09/23 09:04:34;;;;;;;6.13;2.83;;;19.90;45.90;;;;;;5024840;28;20507;-49
2022/09/23 09:07:14;;;;;;;4.27;3.87;;;20.10;45.70;;;;;;5012074;28;20448;-47
2022/09/23 09:09:48;;;;;;;2.80;2.60;;;20.20;45.30;;;;;;5012581;28;20479;-47
2022/09/23 09:12:34;;;;;;;5.20;2.50;;;20.20;45.00;;;;;;5031819;28;20428;-47
2022/09/23 09:15:06;;;;;;;3.23;2.97;;;20.30;44.80;;;;;;5011398;28;20443;-47
2022/09/23 09:17:45;;;;;;;3.13;2.83;;;20.50;44.50;;;;;;5007873;28;21178;-47
2022/09/23 09:20:16;;;;;;;6.00;3.00;;;20.60;44.50;;;;;;5009479;28;20813;-48
2022/09/23 09:22:58;;;;;;;3.40;3.10;;;20.70;44.30;;;;;;5010917;28;20477;-52
2022/09/23 09:25:36;;;;;;;3.10;2.90;;;20.50;44.80;;;;;;5005643;28;20461;-49
2022/09/23 09:28:29;;;;;;;2.70;2.50;;;20.50;44.00;;;;;;5007618;28;22389;-47
2022/09/23 09:31:01;;;;;;;7.57;3.07;;;20.80;43.70;;;;;;5001691;28;21019;-50
2022/09/23 09:33:56;;;;;;;2.50;2.30;;;20.90;43.60;;;;;;5006686;28;20451;-49
2022/09/23 09:36:34;;;;;;;2.83;2.63;;;21.10;43.70;;;;;;5006739;28;20472;-47
2022/09/23 09:39:01;;;;;;;3.77;3.20;;;21.20;43.40;;;;;;5009975;28;20480;-48
2022/09/23 09:41:30;;;;;;;2.90;2.70;;;21.20;43.10;;;;;;5005850;28;21125;-50
2022/09/23 09:43:59;;;;;;;2.90;2.60;;;21.40;43.20;;;;;;5012450;28;20452;-49
2022/09/23 09:46:34;;;;;;;3.00;2.60;;;21.50;43.00;;;;;;5003724;28;20445;-49
2022/09/23 09:49:01;;;;;;;3.47;3.17;;;21.60;43.60;;;;;;5008290;28;20475;-49
2022/09/23 09:51:28;;;;;;;7.93;3.37;;;21.60;43.10;;;;;;5003581;28;20991;-49
2022/09/23 09:54:13;;;;;;;3.07;2.87;;;21.70;42.80;;;;;;5006071;28;20437;-49
2022/09/23 09:56:40;;;;;;;4.10;3.30;;;21.80;42.90;;;;;;5003328;28;20488;-47
2022/09/23 09:59:14;;;;;;;3.47;3.10;;;21.90;43.10;;;;;;5010744;28;21206;-51
2022/09/23 10:01:39;;;;;;;4.33;3.20;;;22.10;42.80;;;;;;5008201;28;20503;-51
2022/09/23 10:04:23;;;;;;;5.10;3.07;;;22.20;42.00;;;;;;5009412;28;20527;-47
2022/09/23 10:07:03;;;;;;;3.50;3.07;;;22.30;42.10;;;;;;5024544;28;20193;-47
2022/09/23 10:09:33;;;;;;;2.67;2.47;;;22.40;41.60;;;;;;5009792;28;20436;-48
2022/09/23 10:12:21;;;;;;;3.03;2.80;;;22.60;42.10;;;;;;5009942;28;20440;-48
2022/09/23 10:14:52;;;;;;;2.93;2.73;;;22.50;41.30;;;;;;5008804;28;20456;-51
2022/09/23 10:17:32;;;;;;;3.43;2.50;;;22.70;41.30;;;;;;5011695;28;20530;-49
2022/09/23 10:20:01;;;;;;;3.20;2.90;;;22.70;40.90;;;;;;5007608;28;20835;-50
2022/09/23 10:22:38;;;;;;;7.33;2.80;;;22.90;40.80;;;;;;5001924;28;20960;-48
2022/09/23 10:25:14;;;;;;;2.93;2.73;;;23.30;40.40;;;;;;5004601;28;20523;-49
2022/09/23 10:27:42;;;;;;;3.70;2.07;;;23.40;39.90;;;;;;5010375;28;20814;-50
2022/09/23 10:30:11;;;;;;;5.60;2.70;;;23.60;39.70;;;;;;5009842;28;20467;-48
2022/09/23 10:32:43;;;;;;;2.70;2.50;;;23.70;40.40;;;;;;5006871;28;20453;-48
2022/09/23 10:35:10;;;;;;;2.53;2.33;;;24.00;40.00;;;;;;5008716;28;20837;-48
2022/09/23 10:37:47;;;;;;;3.33;2.37;;;24.30;38.90;;;;;;5002031;28;20484;-49
2022/09/23 10:46:38;;;;;;;3.17;2.87;;;24.70;37.80;;;;;;5005909;28;20962;-50
2022/09/23 10:49:27;;;;;;;3.80;2.63;;;24.70;38.00;;;;;;5007775;28;20805;-50
2022/09/23 10:52:27;;;;;;;2.63;2.43;;;24.90;38.00;;;;;;4998622;28;20963;-48
2022/09/23 10:55:10;;;;;;;3.23;2.73;;;25.00;38.20;;;;;;5008796;28;20441;-48
2022/09/23 10:57:51;;;;;;;3.40;2.50;;;25.00;37.40;;;;;;5008822;28;20492;-47
2022/09/23 11:00:40;;;;;;;2.53;2.33;;;25.30;37.60;;;;;;5009705;28;20539;-48
2022/09/23 11:03:11;;;;;;;2.37;2.17;;;25.40;38.60;;;;;;5009080;28;20449;-46
2022/09/23 11:06:02;;;;;;;7.73;2.37;;;25.80;38.20;;;;;;5008428;28;20445;-46
2022/09/23 11:09:08;;;;;;;2.40;2.00;;;26.10;37.00;;;;;;5008250;28;20437;-47
2022/09/23 11:12:00;;;;;;;2.33;2.20;;;26.30;36.90;;;;;;4990760;28;20530;-47
2022/09/23 11:14:39;;;;;;;3.10;2.47;;;26.60;35.20;;;;;;5008296;28;20541;-46
2022/09/23 11:17:25;;;;;;;2.93;2.73;;;26.70;34.60;;;;;;5008729;28;20488;-47
2022/09/23 11:20:16;;;;;;;3.00;2.80;;;26.60;34.20;;;;;;5008081;28;20531;-46
2022/09/23 11:22:54;;;;;;;3.80;2.07;;;26.50;34.50;;;;;;5009480;28;20489;-46
2022/09/23 11:25:49;;;;;;;3.00;2.43;;;26.50;34.80;;;;;;5021342;28;20487;-47
2022/09/23 11:28:16;;;;;;;2.70;2.30;;;26.40;34.80;;;;;;4973485;28;20464;-48
2022/09/23 11:31:13;;;;;;;3.20;1.90;;;26.50;35.20;;;;;;5010047;28;20445;-46
2022/09/23 11:33:49;;;;;;;4.03;2.70;;;26.50;34.60;;;;;;4999161;28;20461;-47
2022/09/23 11:36:32;;;;;;;3.70;2.33;;;26.60;34.70;;;;;;5011232;28;20521;-48
2022/09/23 11:39:05;;;;;;;2.00;1.90;;;26.70;35.10;;;;;;5009563;28;20457;-48
2022/09/23 11:41:35;;;;;;;2.80;2.03;;;26.80;34.60;;;;;;5006324;28;20464;-49
2022/09/23 11:44:05;;;;;;;3.93;2.20;;;27.00;34.40;;;;;;4997546;28;20502;-48
2022/09/23 11:46:39;;;;;;;3.40;2.53;;;27.10;34.10;;;;;;4998698;28;20455;-48
2022/09/23 11:49:11;;;;;;;2.70;2.50;;;27.10;34.00;;;;;;5005817;28;20496;-48
2022/09/23 11:51:50;;;;;;;3.63;2.90;;;27.20;33.20;;;;;;5009243;28;20453;-48
2022/09/23 11:54:28;;;;;;;2.90;2.70;;;27.20;33.00;;;;;;5004809;28;20556;-48
2022/09/23 11:56:59;;;;;;;2.30;2.10;;;27.30;33.90;;;;;;5013145;28;20992;-47
2022/09/23 11:59:40;;;;;;;2.37;2.17;;;27.40;33.10;;;;;;5005585;28;20846;-51
2022/09/23 12:02:34;;;;;;;2.50;2.30;;;27.60;33.60;;;;;;5009860;28;20479;-47
2022/09/23 12:05:15;;;;;;;2.20;2.10;;;27.60;33.30;;;;;;5001013;28;20472;-47
2022/09/23 12:07:43;;;;;;;3.07;2.30;;;27.60;33.80;;;;;;5011391;28;20460;-47
2022/09/23 12:10:10;;;;;;;3.07;2.70;;;27.70;33.40;;;;;;5002624;28;20503;-46
2022/09/23 12:13:03;;;;;;;2.37;2.10;;;27.70;33.40;;;;;;5000408;28;20444;-47
2022/09/23 12:15:49;;;;;;;2.87;2.40;;;27.80;33.70;;;;;;5006139;28;20800;-49
2022/09/23 12:18:41;;;;;;;2.30;2.10;;;28.00;33.40;;;;;;5005596;28;20488;-48
2022/09/23 12:21:26;;;;;;;2.73;2.53;;;28.20;32.70;;;;;;5005700;28;20595;-47
2022/09/23 12:24:07;;;;;;;4.00;2.87;;;28.20;31.90;;;;;;4975066;28;20463;-47
2022/09/23 12:26:34;;;;;;;2.53;2.33;;;28.20;31.50;;;;;;5007159;28;21134;-50
2022/09/23 12:29:03;;;;;;;2.60;2.40;;;28.20;31.60;;;;;;5010400;28;20866;-47
2022/09/23 12:31:30;;;;;;;4.20;2.83;;;28.10;31.20;;;;;;5007177;28;20475;-47
2022/09/23 12:33:59;;;;;;;6.73;2.73;;;28.00;31.20;;;;;;5007455;28;20480;-48
2022/09/23 12:36:35;;;;;;;3.83;3.20;;;28.00;31.60;;;;;;5012425;28;20542;-48
2022/09/23 12:39:16;;;;;;;4.43;3.20;;;28.30;31.50;;;;;;5011933;28;20484;-50
2022/09/23 12:41:45;;;;;;;3.90;3.17;;;28.30;32.00;;;;;;5006472;28;20475;-51
2022/09/23 12:44:13;;;;;;;3.17;2.87;;;28.40;32.40;;;;;;5006838;28;20476;-51
2022/09/23 12:46:43;;;;;;;6.63;3.10;;;28.50;31.60;;;;;;5005460;28;20539;-50
2022/09/23 12:49:24;;;;;;;3.80;2.77;;;28.50;31.50;;;;;;5007678;28;20436;-49
2022/09/23 12:52:11;;;;;;;3.50;3.20;;;28.50;31.80;;;;;;5000894;28;20877;-49
2022/09/23 12:54:37;;;;;;;4.00;3.17;;;28.60;31.70;;;;;;5013624;28;20439;-48
2022/09/23 12:57:08;;;;;;;4.83;3.03;;;28.50;32.30;;;;;;5015743;28;20574;-47
2022/09/23 12:59:57;;;;;;;3.33;2.93;;;28.70;32.00;;;;;;5012592;28;20437;-47
2022/09/23 13:02:39;;;;;;;5.23;3.37;;;28.70;31.40;;;;;;5012236;28;20449;-46
2022/09/23 13:08:15;;;;;;;3.23;3.03;;;28.70;31.50;;;;;;5013225;28;20540;-48
2022/09/23 13:10:49;;;;;;;3.13;2.83;;;28.70;31.60;;;;;;5011868;28;20510;-47
2022/09/23 13:13:25;;;;;;;2.70;2.50;;;28.70;30.70;;;;;;5012705;28;20879;-47
2022/09/23 13:15:52;;;;;;;3.53;3.17;;;28.80;30.50;;;;;;5010806;28;20441;-47
2022/09/23 13:18:19;;;;;;;3.83;2.80;;;28.80;30.90;;;;;;5012713;28;20480;-47
2022/09/23 13:20:49;;;;;;;3.23;2.93;;;28.80;30.60;;;;;;5007061;28;20484;-47